Brasstown, NC

6:47 PM EST on February 27, 2015 (GMT -0500)
Franklin | Change Station
CLOSE
Current Station
Airport
Location: Franklin,
Elevation: 2021 ft
Nearby Weather Stations

Elev 2021 ft 35.22 °N, 83.42 °W | Updated 12 minutes ago

Clear
Clear
37 °F
Feels Like 37 °F
N
0
Wind Variable Wind from North
Gusts 5 mph

Today
High -- | Low -- °F
--% Chance of Precip.
Yesterday
High -- | Low -- °F
Precip. -- in
7:08 AM 6:29 PM
Waxing Gibbous, 72% visible
Pressure 30.36 in
Visibility 10.0 miles
Clouds
Dew Point 15 °F
Humidity 41%
Rainfall 0.00 in
Snow Depth Not available.
UV Not available.
Pollen .50 out of 12
Air Quality Not available.
Flu Activity Not available.
METAR K1A5 272335Z AUTO 00000KT 10SM 03/M09 A3036 RMK AO2 T00261095

More Conditions Fewer Conditions

Pressure 30.36 in
Visibility 10.0 miles
Clouds
Dew Point 15 °F
Humidity 41%
Rainfall 0.00 in
Snow Depth Not available.
UV Not available.
Pollen .50 out of 12
Air Quality Not available.
Flu Activity Not available.
METAR K1A5 272335Z AUTO 00000KT 10SM 03/M09 A3036 RMK AO2 T00261095

More Conditions Fewer Conditions

10-Day Weather Forecast

Almanac

Astronomy

Feb. 27, 2015 Rise Set
Actual Time
Civil Twilight
Nautical Twilight
Astronomical Twilight
Moon
Length of Visible Light
Length of Day
Tomorrow will be .
, % of the Moon is Illuminated

Today's Extremes

State Highs State Lows

Community

WunderPhotos

Upload Photos

1,800,881 photos uploaded!

WunderBlogs® & News

Nearby

Air Quality

  Air Quality AQ Index Pollutant
Not available.

Snow Depth

Station Depth Elevation

Earthquake Activity

City Distance Mag. Time & Date
Minimum magnitude displayed is 2.5.

Coastal Water Temperatures

Place Temperature

Nearby Weather Stations